Terminal Aerodrome Forecast
Issued by NWS Cleveland, OH

Home | Current Version | Previous Version | Text Only | Print | Product List | Glossary Off
Versions: 1 2 3 4 5 6 7 8 9 10 11 12 13 14 15 16 17

079
FTUS41 KCLE 280141 AAA
TAFERI
TAF AMD
KERI 280141Z 2802/2824 VRB04KT P6SM VCSH BKN040 BKN150
     FM280300 18008KT P6SM SCT150 BKN200
     FM281400 24008KT P6SM FEW040 BKN200
     FM281800 28010KT P6SM SCT040 BKN200
     FM282200 32008KT P6SM FEW040 BKN150=

USA.gov is the U.S. government's official web portal to all federal, state and local government web resources and services.